首页
METAR-TAF:

METAR-TAF

机场 :

纳塔尔, 北里约格朗德, 巴西

纬度: 05-46-05S, 经度: 035-22-34W, 海拔: 88米

当前天气观测

该预报发布于25分钟前的21:00 UTC
风速5节,风向
温度 25°C
湿度 83%
气压 1017 hPa
能见度10公里或以上
少量云层高于2100英尺
散云层高于5000英尺
多云层高于7000英尺

METAR: SBSG 182100Z 18005KT 9999 FEW021 SCT050 BKN070 25/22 Q1017

时间: 18:25 (21:25 UTC)

预报

该预报发布于5小时和25分钟前的16:00 UTC
预报有效从18日的 18点(UTC)到 19日的 18点(UTC)
风速9节,风向
能見度: 8000
散云层高于1800英尺
几率 40% :
短暂存在
从 18日的 21点(UTC)到 18日的 23点(UTC)
能見度: 4500
散云层高于1200英尺
多云层高于1600英尺
少量云层高于2500英尺, 塔状积云.
成为
从 19日的 00点(UTC)到 19日的 01点(UTC)
风速6节,风向南转西南
几率 30% :
短暂存在
从 19日的 02点(UTC)到 19日的 03点(UTC)
能見度: 5000
散云层高于1200英尺
多云层高于1700英尺
几率 40% :
短暂存在
从 19日的 08点(UTC)到 19日的 10点(UTC)
能見度: 4500
散云层高于800英尺
多云层高于1200英尺
阵雨
成为
从 19日的 11点(UTC)到 19日的 12点(UTC)
风速11节,风向
多云层高于1700英尺
成为
从 19日的 14点(UTC)到 19日的 16点(UTC)
散云层高于3000英尺

TAF: SBSG 181600Z 1818/1918 18009KT 8000 SCT018 TN22/1906Z TX27/1915Z PROB40 TEMPO 1821/1823 4500 RA SCT012 BKN016 FEW025TCU BECMG 1900/1901 21006KT PROB30 TEMPO 1902/1903 5000 RA SCT012 BKN017 PROB40 TEMPO 1908/1910 4500 SHRA SCT008 BKN012 BECMG 1911/1912 18011KT BKN017 BECMG 1914/1916 SCT030 RMK PEI

超过4000个机场的气象观测和天气预报(METAR&TAF报告)。

可查询的气象台以黄色和红色小点在地图上表示。

将鼠标移到小点上方,可查看气象台名称。

然后点击查看天气观测和预报。

如需切换地图:点击带黑十字的绿色按钮放大地图;点击带横线的绿色按钮缩小地图;或者点击绿色箭头查看邻近地区的地图。


METAR-TAF: